sensor_id;sensor_type;location;lat;lon;timestamp;P1;durP1;ratioP1;P2;durP2;ratioP2
71790;SDS011;59638;52.126;5.434;2023-01-19T00:02:24;4.25;;;3.00;;
71790;SDS011;59638;52.126;5.434;2023-01-19T00:04:51;6.35;;;3.75;;
71790;SDS011;59638;52.126;5.434;2023-01-19T00:07:17;6.57;;;3.27;;
71790;SDS011;59638;52.126;5.434;2023-01-19T00:09:44;6.30;;;3.20;;
71790;SDS011;59638;52.126;5.434;2023-01-19T00:12:10;4.90;;;2.70;;
71790;SDS011;59638;52.126;5.434;2023-01-19T00:14:37;8.63;;;4.22;;
71790;SDS011;59638;52.126;5.434;2023-01-19T00:17:03;4.07;;;3.40;;
71790;SDS011;59638;52.126;5.434;2023-01-19T00:19:29;3.97;;;2.43;;
71790;SDS011;59638;52.126;5.434;2023-01-19T00:21:56;7.15;;;3.60;;
71790;SDS011;59638;52.126;5.434;2023-01-19T00:24:22;1.23;;;0.90;;
71790;SDS011;59638;52.126;5.434;2023-01-19T00:26:49;6.63;;;2.47;;
71790;SDS011;59638;52.126;5.434;2023-01-19T00:29:15;5.43;;;3.45;;
71790;SDS011;59638;52.126;5.434;2023-01-19T00:31:41;1.23;;;0.67;;
71790;SDS011;59638;52.126;5.434;2023-01-19T00:34:08;1.83;;;0.98;;
71790;SDS011;59638;52.126;5.434;2023-01-19T00:36:34;3.35;;;0.55;;
71790;SDS011;59638;52.126;5.434;2023-01-19T00:39:01;3.22;;;0.38;;
71790;SDS011;59638;52.126;5.434;2023-01-19T00:41:27;6.30;;;0.70;;
71790;SDS011;59638;52.126;5.434;2023-01-19T00:44:12;0.93;;;0.50;;
71790;SDS011;59638;52.126;5.434;2023-01-19T00:46:38;1.48;;;0.93;;
71790;SDS011;59638;52.126;5.434;2023-01-19T00:49:05;1.95;;;1.08;;
71790;SDS011;59638;52.126;5.434;2023-01-19T00:51:31;2.33;;;1.17;;
71790;SDS011;59638;52.126;5.434;2023-01-19T00:53:58;1.52;;;0.75;;
71790;SDS011;59638;52.126;5.434;2023-01-19T00:56:30;2.70;;;1.53;;
71790;SDS011;59638;52.126;5.434;2023-01-19T00:58:57;4.07;;;1.95;;
71790;SDS011;59638;52.126;5.434;2023-01-19T01:01:24;4.32;;;2.83;;
71790;SDS011;59638;52.126;5.434;2023-01-19T01:04:10;7.88;;;2.63;;
71790;SDS011;59638;52.126;5.434;2023-01-19T01:06:38;2.50;;;1.83;;
71790;SDS011;59638;52.126;5.434;2023-01-19T01:09:05;4.10;;;2.80;;
71790;SDS011;59638;52.126;5.434;2023-01-19T01:11:37;6.78;;;2.90;;
71790;SDS011;59638;52.126;5.434;2023-01-19T01:14:05;8.23;;;3.13;;
71790;SDS011;59638;52.126;5.434;2023-01-19T01:16:32;6.22;;;2.92;;
71790;SDS011;59638;52.126;5.434;2023-01-19T01:18:59;1.40;;;0.82;;
71790;SDS011;59638;52.126;5.434;2023-01-19T01:21:25;1.63;;;0.80;;
71790;SDS011;59638;52.126;5.434;2023-01-19T01:23:52;2.25;;;1.63;;
71790;SDS011;59638;52.126;5.434;2023-01-19T01:26:18;2.17;;;1.10;;
71790;SDS011;59638;52.126;5.434;2023-01-19T01:28:45;6.50;;;2.45;;
71790;SDS011;59638;52.126;5.434;2023-01-19T01:31:11;3.38;;;1.48;;
71790;SDS011;59638;52.126;5.434;2023-01-19T01:33:37;2.73;;;1.27;;
71790;SDS011;59638;52.126;5.434;2023-01-19T01:36:06;3.03;;;1.52;;
71790;SDS011;59638;52.126;5.434;2023-01-19T01:38:34;2.72;;;1.38;;
71790;SDS011;59638;52.126;5.434;2023-01-19T01:41:00;2.28;;;0.85;;
71790;SDS011;59638;52.126;5.434;2023-01-19T01:43:39;2.05;;;1.20;;
71790;SDS011;59638;52.126;5.434;2023-01-19T01:46:12;0.83;;;0.47;;
71790;SDS011;59638;52.126;5.434;2023-01-19T01:48:41;1.42;;;0.40;;
71790;SDS011;59638;52.126;5.434;2023-01-19T01:51:14;2.65;;;0.68;;
71790;SDS011;59638;52.126;5.434;2023-01-19T01:53:51;0.98;;;0.30;;
